Time;durP1;ratioP1;P1;durP2;ratioP2;P2;SDS_P1;SDS_P2;PMS_P1;PMS_P2;Temp;Humidity;BMP_temperature;BMP_pressure;BME280_temperature;BME280_humidity;BME280_pressure;Samples;Min_cycle;Max_cycle;Signal;HPM_P1;HPM_P2
2022/02/20 00:01:56;;;;;;;3.33;2.00;;;;;;;6.70;78.65;98598.81;5090713;28;20043;-62
2022/02/20 00:04:22;;;;;;;3.80;2.22;;;;;;;6.74;78.75;98604.69;5090441;28;20097;-61
2022/02/20 00:06:49;;;;;;;6.68;2.65;;;;;;;6.78;78.60;98601.78;5090550;28;20079;-61
2022/02/20 00:09:16;;;;;;;3.78;2.55;;;;;;;6.82;78.87;98612.91;5089959;28;20127;-59
2022/02/20 00:11:42;;;;;;;4.10;2.20;;;;;;;6.88;78.62;98616.94;5090116;28;20126;-61
2022/02/20 00:14:09;;;;;;;3.65;2.53;;;;;;;6.90;78.97;98621.16;5090124;28;20177;-61
2022/02/20 00:16:36;;;;;;;6.32;2.65;;;;;;;6.94;78.88;98628.78;5090478;28;20101;-60
2022/02/20 00:19:04;;;;;;;6.90;3.08;;;;;;;6.99;78.60;98634.63;5089013;28;20080;-61
2022/02/20 00:21:31;;;;;;;5.57;3.00;;;;;;;7.03;78.89;98630.88;5088663;28;20413;-60
2022/02/20 00:23:58;;;;;;;3.97;2.60;;;;;;;7.08;78.63;98652.38;5093426;28;20447;-61
2022/02/20 00:26:24;;;;;;;6.00;3.17;;;;;;;7.12;78.91;98661.72;5096528;28;20044;-63
2022/02/20 00:28:51;;;;;;;4.85;2.70;;;;;;;7.16;78.65;98657.97;5095525;28;20124;-60
2022/02/20 00:31:18;;;;;;;6.82;3.10;;;;;;;7.20;78.79;98669.09;5096367;28;20052;-60
2022/02/20 00:33:44;;;;;;;5.93;3.15;;;;;;;7.22;78.83;98697.78;5095634;28;20562;-62
2022/02/20 00:36:11;;;;;;;8.88;3.35;;;;;;;7.24;78.50;98674.97;5096767;28;20056;-62
2022/02/20 00:38:38;;;;;;;7.40;3.20;;;;;;;7.27;78.56;98688.75;5096433;28;20126;-61
2022/02/20 00:41:04;;;;;;;6.22;2.95;;;;;;;7.29;78.46;98699.13;5096430;28;20051;-61
2022/02/20 00:43:31;;;;;;;6.97;3.22;;;;;;;7.33;78.65;98694.53;5096573;28;20557;-61
2022/02/20 00:45:58;;;;;;;10.13;3.63;;;;;;;7.34;78.32;98704.91;5096889;28;20109;-60
2022/02/20 00:48:24;;;;;;;9.00;3.28;;;;;;;7.37;78.38;98706.50;5096766;28;20044;-60
2022/02/20 00:50:51;;;;;;;8.05;3.40;;;;;;;7.38;78.11;98713.41;5096279;28;20055;-62
2022/02/20 00:53:17;;;;;;;6.03;3.42;;;;;;;7.39;78.06;98726.41;5096240;28;20563;-60
2022/02/20 00:55:44;;;;;;;8.27;3.45;;;;;;;7.42;78.18;98731.47;5096492;28;20052;-60
2022/02/20 00:58:10;;;;;;;6.65;3.72;;;;;;;7.43;78.21;98730.53;5096773;28;20052;-61
2022/02/20 01:00:37;;;;;;;8.50;3.42;;;;;;;7.45;78.20;98738.28;5096209;28;20044;-62
2022/02/20 01:03:06;;;;;;;12.40;4.90;;;;;;;7.46;77.82;98745.22;5096560;28;20048;-61
2022/02/20 01:05:33;;;;;;;11.20;3.47;;;;;;;7.47;77.92;98744.28;5094958;28;20610;-57
2022/02/20 01:07:59;;;;;;;10.50;3.72;;;;;;;7.47;77.73;98754.75;5096454;28;20048;-61
2022/02/20 01:10:26;;;;;;;6.93;2.63;;;;;;;7.48;77.89;98750.34;5096081;28;20048;-61
2022/02/20 01:12:54;;;;;;;10.13;3.22;;;;;;;7.48;77.90;98764.28;5096488;28;20044;-61
2022/02/20 01:15:22;;;;;;;7.72;2.83;;;;;;;7.48;77.45;98768.69;5095935;28;20044;-61
2022/02/20 01:17:49;;;;;;;6.68;2.75;;;;;;;7.48;77.31;98773.94;5095023;28;20056;-61
2022/02/20 01:20:15;;;;;;;7.47;2.35;;;;;;;7.48;77.72;98772.13;5096013;28;20048;-62
2022/02/20 01:22:42;;;;;;;8.27;3.15;;;;;;;7.48;77.62;98779.97;5096229;28;20097;-61
2022/02/20 01:25:09;;;;;;;11.25;2.72;;;;;;;7.50;77.70;98787.75;5096057;28;20105;-61
2022/02/20 01:27:35;;;;;;;10.38;2.88;;;;;;;7.50;77.27;98795.59;5094656;28;20576;-60
2022/02/20 01:30:03;;;;;;;12.73;2.60;;;;;;;7.51;77.70;98800.75;5095860;28;20492;-59
2022/02/20 01:32:29;;;;;;;11.05;3.45;;;;;;;7.49;77.47;98794.78;5095228;28;20488;-58
2022/02/20 01:34:56;;;;;;;9.18;3.15;;;;;;;7.51;77.15;98807.78;5092935;28;20101;-61
2022/02/20 01:37:23;;;;;;;10.52;3.60;;;;;;;7.49;77.28;98801.78;5092790;28;20636;-61
2022/02/20 01:39:50;;;;;;;12.50;3.42;;;;;;;7.48;77.09;98816.66;5092685;28;20044;-60
2022/02/20 01:42:16;;;;;;;11.02;3.42;;;;;;;7.48;77.18;98824.50;5092986;28;20082;-62
2022/02/20 01:44:43;;;;;;;13.07;3.58;;;;;;;7.46;76.88;98822.91;5093089;28;20052;-61
2022/02/20 01:47:13;;;;;;;12.27;2.80;;;;;;;7.46;77.14;98828.16;5092719;28;20495;-61
2022/02/20 01:49:39;;;;;;;11.20;2.80;;;;;;;7.45;77.09;98839.56;5092662;28;20056;-61
2022/02/20 01:52:06;;;;;;;13.00;3.10;;;;;;;7.43;77.18;98848.34;5092572;28;20056;-60
2022/02/20 01:54:33;;;;;;;8.65;3.38;;;;;;;7.43;77.10;98864.06;5092577;28;20059;-61
2022/02/20 01:57:00;;;;;;;11.48;3.25;;;;;;;7.42;77.18;98867.63;5092182;28;21190;-60
2022/02/20 01:59:26;;;;;;;8.20;2.80;;;;;;;7.40;77.07;98872.09;5092542;28;20536;-60
2022/02/20 02:01:54;;;;;;;8.60;2.28;;;;;;;7.40;77.31;98874.72;5092897;28;20052;-62
2022/02/20 02:04:23;;;;;;;8.27;3.22;;;;;;;7.40;76.66;98895.66;5091396;28;20439;-63
2022/02/20 02:06:49;;;;;;;9.77;2.15;;;;;;;7.37;76.35;98906.28;5091401;28;20450;-61
2022/02/20 02:09:17;;;;;;;8.73;2.72;;;;;;;7.34;75.97;98921.34;5091965;28;20040;-61
2022/02/20 02:11:44;;;;;;;4.75;1.98;;;;;;;7.30;75.99;98925.94;5092514;28;20120;-60
2022/02/20 02:14:11;;;;;;;6.03;2.10;;;;;;;7.27;75.77;98929.56;5092344;28;20393;-60
2022/02/20 02:16:38;;;;;;;12.70;2.70;;;;;;;7.22;75.97;98923.72;5092320;28;20122;-59
2022/02/20 02:19:04;;;;;;;7.15;2.33;;;;;;;7.17;76.07;98931.84;5092398;28;20454;-60
2022/02/20 02:21:31;;;;;;;4.90;2.72;;;;;;;7.14;75.89;98945.09;5092061;28;20464;-61
2022/02/20 02:23:58;;;;;;;6.03;2.58;;;;;;;7.10;76.13;98945.38;5091035;28;20109;-60
2022/02/20 02:26:25;;;;;;;9.13;2.65;;;;;;;7.07;75.99;98956.88;5092264;28;20110;-59
2022/02/20 02:28:52;;;;;;;7.82;2.90;;;;;;;7.03;76.07;98961.41;5090777;28;20056;-62
2022/02/20 02:31:19;;;;;;;6.90;2.80;;;;;;;7.01;76.09;98960.66;5091820;28;20048;-60
2022/02/20 02:33:46;;;;;;;4.93;2.58;;;;;;;6.99;76.45;98974.75;5090724;28;20066;-58
2022/02/20 02:36:13;;;;;;;13.30;3.28;;;;;;;6.97;76.48;98967.00;5091176;28;20055;-61
2022/02/20 02:38:40;;;;;;;9.27;2.75;;;;;;;6.96;76.29;98964.44;5091624;28;20043;-60
2022/02/20 02:41:09;;;;;;;6.40;2.88;;;;;;;6.95;76.64;98976.69;5091653;28;20380;-60
2022/02/20 02:43:37;;;;;;;12.63;3.28;;;;;;;6.96;76.66;98985.38;5091679;28;20044;-61
2022/02/20 02:46:05;;;;;;;8.10;2.80;;;;;;;6.96;76.52;98982.75;5091118;28;20112;-61
2022/02/20 02:48:32;;;;;;;7.32;3.45;;;;;;;6.95;76.95;98984.53;5090733;28;20122;-61
2022/02/20 02:51:04;;;;;;;11.52;3.67;;;;;;;6.97;76.78;99000.13;5091818;28;20093;-60
2022/02/20 02:53:30;;;;;;;8.70;3.72;;;;;;;6.96;76.96;99001.94;5090499;28;20109;-60
2022/02/20 02:55:57;;;;;;;8.88;3.53;;;;;;;6.96;76.66;99001.06;5090575;28;20051;-62
2022/02/20 02:58:25;;;;;;;8.60;3.42;;;;;;;6.96;76.88;99001.06;5091450;28;20044;-61
2022/02/20 03:00:53;;;;;;;7.18;3.42;;;;;;;6.96;76.93;99001.94;5089525;28;20109;-63
2022/02/20 03:03:21;;;;;;;5.65;3.60;;;;;;;6.97;77.11;99018.47;5091531;28;20051;-61
2022/02/20 03:05:49;;;;;;;8.77;3.10;;;;;;;6.97;76.87;99023.69;5090359;28;20056;-60
2022/02/20 03:08:15;;;;;;;11.57;3.47;;;;;;;6.98;76.88;99022.75;5091640;28;20109;-60
2022/02/20 03:10:42;;;;;;;8.68;2.78;;;;;;;6.99;76.98;99027.09;5090963;28;20093;-61
2022/02/20 03:13:08;;;;;;;8.40;3.53;;;;;;;6.99;77.03;99040.16;5091002;28;20048;-62
2022/02/20 03:15:35;;;;;;;11.60;3.90;;;;;;;6.99;76.98;99033.16;5090909;28;20105;-61
2022/02/20 03:18:01;;;;;;;10.88;3.83;;;;;;;6.99;77.08;99038.38;5091240;28;20040;-60
2022/02/20 03:20:28;;;;;;;11.65;3.45;;;;;;;7.00;76.81;99040.06;5090812;28;20105;-60
2022/02/20 03:22:54;;;;;;;8.98;3.78;;;;;;;7.01;76.99;99052.25;5091058;28;20101;-61
2022/02/20 03:25:21;;;;;;;8.70;3.83;;;;;;;7.01;76.84;99065.31;5090749;28;20047;-61
2022/02/20 03:27:48;;;;;;;9.90;3.30;;;;;;;7.02;77.20;99068.78;5091098;28;20048;-61
2022/02/20 03:30:14;;;;;;;7.50;3.47;;;;;;;7.03;77.10;99076.53;5090905;28;20676;-61
2022/02/20 03:32:41;;;;;;;6.80;3.58;;;;;;;7.04;77.04;99077.41;5091104;28;20100;-61
2022/02/20 03:35:08;;;;;;;7.93;3.63;;;;;;;7.04;76.73;99080.84;5091173;28;20044;-61
2022/02/20 03:37:35;;;;;;;5.63;3.42;;;;;;;7.07;76.68;99086.84;5090965;28;20047;-59
2022/02/20 03:40:03;;;;;;;5.57;3.65;;;;;;;7.04;76.30;99086.06;5090701;28;20048;-61
2022/02/20 03:42:30;;;;;;;7.38;3.88;;;;;;;7.04;76.75;99095.72;5088905;28;20036;-61
2022/02/20 03:44:56;;;;;;;9.00;4.00;;;;;;;7.03;76.46;99105.31;5090761;28;20052;-61
2022/02/20 03:47:24;;;;;;;11.75;4.30;;;;;;;7.03;76.25;99122.81;5090758;28;20082;-59
2022/02/20 03:49:50;;;;;;;18.95;4.20;;;;;;;7.02;76.23;99131.56;5090558;28;20048;-61
2022/02/20 03:52:17;;;;;;;6.53;3.83;;;;;;;6.99;76.20;99135.19;5090673;28;20085;-61
2022/02/20 03:54:45;;;;;;;7.60;3.63;;;;;;;6.97;76.29;99142.28;5090641;28;20044;-62
2022/02/20 03:57:11;;;;;;;10.70;4.32;;;;;;;6.96;76.03;99158.94;5088046;28;20075;-61
2022/02/20 03:59:38;;;;;;;5.68;4.05;;;;;;;6.94;76.03;99158.16;5090175;28;20048;-62
2022/02/20 04:02:05;;;;;;;6.00;4.15;;;;;;;6.92;75.75;99157.41;5089520;28;20044;-60
2022/02/20 04:04:31;;;;;;;5.45;3.90;;;;;;;6.91;75.93;99166.16;5090593;28;20114;-61
2022/02/20 04:06:58;;;;;;;7.20;4.60;;;;;;;6.88;75.49;99161.91;5090396;28;20066;-61
2022/02/20 04:09:25;;;;;;;6.20;3.95;;;;;;;6.86;75.60;99163.78;5088911;28;20048;-60
2022/02/20 04:11:52;;;;;;;6.60;4.40;;;;;;;6.85;75.36;99162.09;5090347;28;20048;-62
2022/02/20 04:14:18;;;;;;;9.40;4.78;;;;;;;6.84;75.39;99170.84;5090199;28;20105;-61
2022/02/20 04:16:45;;;;;;;6.88;4.70;;;;;;;6.79;75.48;99167.63;5090407;28;20097;-60
2022/02/20 04:19:11;;;;;;;5.60;3.97;;;;;;;6.79;75.62;99162.41;5090201;28;20052;-61
2022/02/20 04:21:38;;;;;;;5.18;4.40;;;;;;;6.77;75.59;99167.69;5090490;28;20099;-61
2022/02/20 04:24:05;;;;;;;7.28;4.90;;;;;;;6.73;75.23;99174.00;5089914;28;20098;-60
2022/02/20 04:26:31;;;;;;;6.25;5.28;;;;;;;6.72;75.08;99177.56;5090504;28;20109;-60
2022/02/20 04:28:58;;;;;;;5.75;4.80;;;;;;;6.70;75.10;99173.31;5090160;28;20109;-61
2022/02/20 04:31:25;;;;;;;7.38;5.53;;;;;;;6.69;75.35;99171.63;5090100;28;20109;-60
2022/02/20 04:33:51;;;;;;;5.40;4.90;;;;;;;6.66;75.01;99154.34;5090240;28;20056;-59
2022/02/20 04:36:18;;;;;;;6.40;5.15;;;;;;;6.64;75.68;99164.88;5090225;28;20048;-62
2022/02/20 04:38:44;;;;;;;6.38;5.35;;;;;;;6.62;75.56;99174.53;5090047;28;20102;-61
2022/02/20 04:41:11;;;;;;;8.82;5.90;;;;;;;6.61;75.41;99175.47;5090176;28;20060;-60
2022/02/20 04:43:37;;;;;;;7.47;5.57;;;;;;;6.59;75.07;99176.47;5090130;28;20052;-61
2022/02/20 04:46:04;;;;;;;6.25;5.25;;;;;;;6.57;75.32;99178.31;5089822;28;20496;-62
2022/02/20 04:48:30;;;;;;;6.47;4.80;;;;;;;6.54;75.12;99192.38;5089871;28;20494;-61
2022/02/20 04:50:57;;;;;;;5.00;4.35;;;;;;;6.50;75.12;99181.25;5089760;28;20098;-60
2022/02/20 04:53:24;;;;;;;3.58;3.28;;;;;;;6.46;74.74;99171.00;5089829;28;20044;-60
2022/02/20 04:55:51;;;;;;;3.05;2.75;;;;;;;6.41;74.90;99189.53;5088594;28;20480;-62
2022/02/20 04:58:19;;;;;;;4.95;2.90;;;;;;;6.36;74.90;99187.13;5089970;28;20397;-62
2022/02/20 05:00:45;;;;;;;3.50;3.13;;;;;;;6.32;74.60;99185.59;5089695;28;20097;-60
2022/02/20 05:03:12;;;;;;;4.63;3.50;;;;;;;6.28;74.87;99175.38;5090079;28;20066;-60
2022/02/20 05:05:39;;;;;;;3.80;2.95;;;;;;;6.23;74.73;99171.22;5089790;28;20671;-61
2022/02/20 05:08:06;;;;;;;4.82;3.35;;;;;;;6.20;74.65;99170.53;5090062;28;20105;-60
2022/02/20 05:10:32;;;;;;;3.17;2.80;;;;;;;6.16;75.07;99164.59;5092633;28;20047;-61
2022/02/20 05:12:59;;;;;;;3.83;3.30;;;;;;;6.13;75.10;99165.59;5093457;28;20044;-59
2022/02/20 05:15:26;;;;;;;4.53;3.92;;;;;;;6.09;74.75;99158.81;5093524;28;20063;-61
2022/02/20 05:17:52;;;;;;;3.72;3.30;;;;;;;6.07;75.20;99159.81;5093774;28;20040;-60
2022/02/20 05:20:19;;;;;;;4.90;3.67;;;;;;;6.04;75.48;99163.41;5093178;28;20051;-61
2022/02/20 05:22:46;;;;;;;5.85;3.88;;;;;;;6.02;75.56;99152.16;5093761;28;20052;-58
2022/02/20 05:25:12;;;;;;;5.53;3.50;;;;;;;6.02;75.61;99152.16;5093380;28;20484;-59
2022/02/20 05:27:43;;;;;;;5.25;3.60;;;;;;;6.00;75.10;99156.63;5093391;28;20060;-60
2022/02/20 05:30:13;;;;;;;3.67;3.20;;;;;;;5.97;74.91;99155.00;5093360;28;20086;-61
2022/02/20 05:32:39;;;;;;;7.05;3.80;;;;;;;5.97;75.73;99146.31;5093152;28;20052;-61
2022/02/20 05:35:07;;;;;;;4.72;3.22;;;;;;;5.94;75.38;99149.91;5093149;28;20052;-61
2022/02/20 05:37:47;;;;;;;3.20;2.67;;;;;;;5.90;74.65;99144.94;5093325;28;20048;-62
2022/02/20 05:40:19;;;;;;;4.78;2.88;;;;;;;5.90;75.50;99143.13;5091917;28;20074;-62
2022/02/20 05:42:46;;;;;;;4.03;2.50;;;;;;;5.90;75.63;99142.31;5091762;28;20537;-62
2022/02/20 05:45:13;;;;;;;3.35;2.67;;;;;;;5.89;75.72;99145.81;5092530;28;20043;-60
2022/02/20 05:47:39;;;;;;;4.20;2.70;;;;;;;5.89;75.75;99145.81;5092725;28;20052;-60
2022/02/20 05:50:08;;;;;;;7.88;2.40;;;;;;;5.85;75.61;99138.16;5092547;28;20069;-62
2022/02/20 05:52:35;;;;;;;5.47;2.33;;;;;;;5.85;75.86;99139.91;5092652;28;20052;-60
2022/02/20 05:55:03;;;;;;;3.75;2.53;;;;;;;5.84;75.88;99133.00;5092649;28;20056;-62
2022/02/20 05:57:30;;;;;;;9.70;3.25;;;;;;;5.83;75.60;99123.47;5092594;28;20087;-61
2022/02/20 05:59:56;;;;;;;3.53;2.20;;;;;;;5.83;75.88;99119.06;5092740;28;20533;-60
2022/02/20 06:02:23;;;;;;;4.65;2.10;;;;;;;5.82;75.84;99112.16;5092169;28;20113;-60
2022/02/20 06:04:49;;;;;;;2.85;2.20;;;;;;;5.83;75.79;99108.63;5092837;28;20048;-58
2022/02/20 06:07:16;;;;;;;4.30;2.22;;;;;;;5.83;75.89;99106.03;5092635;28;20044;-62
2022/02/20 06:09:42;;;;;;;3.00;2.42;;;;;;;5.84;75.91;99102.47;5092199;28;20093;-60
2022/02/20 06:12:09;;;;;;;4.28;2.47;;;;;;;5.84;76.00;99092.03;5092440;28;20120;-61
2022/02/20 06:14:36;;;;;;;6.15;2.45;;;;;;;5.86;75.88;99085.00;5092549;28;20104;-58
2022/02/20 06:17:02;;;;;;;5.88;2.78;;;;;;;5.86;75.58;99079.75;5090719;28;20048;-60
2022/02/20 06:19:29;;;;;;;4.63;2.85;;;;;;;5.85;75.67;99070.25;5091783;28;20097;-61
2022/02/20 06:21:55;;;;;;;3.92;2.40;;;;;;;5.84;75.43;99076.34;5091552;28;20090;-58
2022/02/20 06:24:22;;;;;;;4.57;2.40;;;;;;;5.82;75.52;99059.94;5092072;28;20101;-60
2022/02/20 06:26:48;;;;;;;7.78;2.63;;;;;;;5.83;75.71;99063.41;5092075;28;20048;-61
2022/02/20 06:29:15;;;;;;;6.03;2.53;;;;;;;5.82;76.02;99049.50;5091528;28;20056;-57
2022/02/20 06:31:41;;;;;;;3.25;2.95;;;;;;;5.82;75.99;99049.50;5092301;28;20454;-61
2022/02/20 06:34:08;;;;;;;6.45;3.17;;;;;;;5.82;75.66;99041.66;5089969;28;20040;-60
2022/02/20 06:36:35;;;;;;;7.57;3.50;;;;;;;5.84;76.00;99033.75;5091758;28;20090;-61
2022/02/20 06:39:03;;;;;;;8.43;3.38;;;;;;;5.82;75.77;99025.97;5091805;28;20128;-59
2022/02/20 06:41:30;;;;;;;6.13;3.13;;;;;;;5.83;75.89;99012.00;5090461;28;20111;-60
2022/02/20 06:43:57;;;;;;;5.45;4.10;;;;;;;5.82;75.99;99012.91;5091609;28;20086;-60
2022/02/20 06:46:24;;;;;;;8.05;4.40;;;;;;;5.82;75.99;99010.31;5092111;28;20135;-58
2022/02/20 06:48:51;;;;;;;7.22;3.88;;;;;;;5.82;75.73;98992.03;5091583;28;20800;-60
2022/02/20 06:51:17;;;;;;;8.13;4.40;;;;;;;5.80;75.87;98978.19;5091243;28;20044;-60
2022/02/20 06:53:44;;;;;;;10.68;4.97;;;;;;;5.79;75.72;98981.72;5091694;28;20044;-60
2022/02/20 06:56:10;;;;;;;10.98;4.95;;;;;;;5.77;75.92;98954.00;5090340;28;20040;-60
2022/02/20 06:58:37;;;;;;;8.82;5.20;;;;;;;5.76;75.75;98953.19;5090283;28;20051;-60
2022/02/20 07:01:04;;;;;;;9.10;4.90;;;;;;;5.77;75.95;98946.16;5090044;28;20059;-58
2022/02/20 07:03:31;;;;;;;8.43;5.35;;;;;;;5.75;75.83;98930.56;5091735;28;20121;-58
2022/02/20 07:05:57;;;;;;;14.57;5.50;;;;;;;5.74;75.90;98934.97;5091095;28;20047;-61
2022/02/20 07:08:24;;;;;;;7.25;5.70;;;;;;;5.72;76.00;98920.31;5091619;28;20059;-57
2022/02/20 07:10:51;;;;;;;11.32;5.00;;;;;;;5.73;76.17;98919.38;5091050;28;20051;-59
2022/02/20 07:13:17;;;;;;;8.38;4.88;;;;;;;5.70;76.22;98911.69;5089939;28;20113;-61
2022/02/20 07:15:44;;;;;;;9.95;5.40;;;;;;;5.68;76.33;98892.66;5090825;28;20048;-61
2022/02/20 07:18:10;;;;;;;9.52;5.43;;;;;;;5.67;76.29;98897.03;5091194;28;20484;-60
2022/02/20 07:20:37;;;;;;;8.10;4.72;;;;;;;5.65;76.30;98871.91;5089100;28;20113;-63
2022/02/20 07:23:03;;;;;;;8.50;4.85;;;;;;;5.64;76.28;98872.84;5090383;28;20052;-62
2022/02/20 07:25:30;;;;;;;11.05;5.57;;;;;;;5.62;76.48;98870.31;5090840;28;20044;-62
2022/02/20 07:27:56;;;;;;;10.38;5.65;;;;;;;5.58;76.59;98864.38;5090979;28;20184;-60
2022/02/20 07:30:27;;;;;;;10.07;4.25;;;;;;;5.57;76.52;98847.03;5089834;28;20048;-61
2022/02/20 07:33:04;;;;;;;12.40;5.88;;;;;;;5.56;76.98;98845.34;5088538;28;20048;-62
2022/02/20 07:35:31;;;;;;;10.90;5.70;;;;;;;5.55;77.09;98842.81;5089485;28;20048;-60
2022/02/20 07:37:58;;;;;;;10.02;5.95;;;;;;;5.52;77.36;98842.97;5088831;28;20067;-63
2022/02/20 07:40:25;;;;;;;9.13;5.45;;;;;;;5.52;77.56;98833.38;5090515;28;20109;-61
2022/02/20 07:42:52;;;;;;;10.55;6.07;;;;;;;5.50;77.49;98840.44;5090781;28;20052;-60
2022/02/20 07:45:23;;;;;;;13.32;6.53;;;;;;;5.49;77.94;98830.91;5089819;28;20047;-62
2022/02/20 07:48:02;;;;;;;9.82;7.15;;;;;;;5.50;78.12;98818.72;5090772;28;20055;-61
2022/02/20 07:50:32;;;;;;;8.75;6.05;;;;;;;5.51;78.27;98802.97;5089166;28;20052;-62
2022/02/20 07:52:59;;;;;;;13.30;7.65;;;;;;;5.52;78.50;98812.50;5090836;28;20048;-62
2022/02/20 07:55:27;;;;;;;14.40;7.40;;;;;;;5.55;78.75;98812.34;5089127;28;20059;-62
2022/02/20 07:57:55;;;;;;;13.73;7.68;;;;;;;5.54;78.89;98792.38;5090485;28;20070;-60
2022/02/20 08:00:28;;;;;;;14.43;7.65;;;;;;;5.57;78.78;98786.16;5088794;28;20097;-60
2022/02/20 08:02:54;;;;;;;;;;;;;;;5.60;78.68;98776.41;5090917;28;20639;-60
2022/02/20 08:05:21;;;;;;;19.75;7.28;;;;;;;5.66;78.74;98771.78;5090631;28;19949;-62
2022/02/20 08:07:47;;;;;;;14.15;7.85;;;;;;;5.68;79.02;98773.38;5090670;28;20113;-61
2022/02/20 08:10:14;;;;;;;13.20;8.60;;;;;;;5.70;79.29;98765.47;5090237;28;20077;-60
2022/02/20 08:12:40;;;;;;;15.82;9.18;;;;;;;5.71;79.70;98759.31;5090437;28;20060;-60
2022/02/20 08:15:08;;;;;;;18.13;8.93;;;;;;;5.74;79.58;98746.94;5090296;28;20617;-62
2022/02/20 08:17:45;;;;;;;14.52;9.02;;;;;;;5.76;80.05;98754.72;5089912;28;20052;-60
2022/02/20 08:20:13;;;;;;;18.33;8.77;;;;;;;5.82;79.72;98737.84;5090615;28;20056;-60
2022/02/20 08:22:41;;;;;;;15.48;8.80;;;;;;;5.85;79.82;98733.31;5089679;28;20093;-61
2022/02/20 08:25:08;;;;;;;18.23;8.38;;;;;;;5.89;79.94;98722.69;5090262;28;20097;-60
2022/02/20 08:27:36;;;;;;;14.10;7.88;;;;;;;5.93;80.06;98721.59;5089050;28;20052;-60
2022/02/20 08:30:11;;;;;;;15.43;8.30;;;;;;;5.93;80.51;98704.16;5088655;28;20196;-60
2022/02/20 08:32:38;;;;;;;15.95;8.75;;;;;;;5.98;80.63;98720.41;5088933;28;20033;-60
2022/02/20 08:35:08;;;;;;;18.77;8.70;;;;;;;6.04;80.61;98690.53;5090264;28;20446;-60
2022/02/20 08:37:36;;;;;;;15.18;7.63;;;;;;;6.08;80.66;98691.19;5090309;28;20086;-60
2022/02/20 08:40:04;;;;;;;12.40;7.40;;;;;;;6.13;80.66;98691.78;5088694;28;20102;-61
2022/02/20 08:42:31;;;;;;;16.02;7.90;;;;;;;6.18;80.55;98699.38;5088208;28;20048;-60
2022/02/20 08:44:58;;;;;;;11.98;7.95;;;;;;;6.22;80.59;98693.03;5092430;28;20056;-61
2022/02/20 08:47:25;;;;;;;12.32;7.65;;;;;;;6.27;81.10;98690.19;5094014;28;20071;-63
2022/02/20 08:49:52;;;;;;;16.75;7.45;;;;;;;6.31;81.49;98683.88;5093719;28;20105;-61
2022/02/20 08:52:19;;;;;;;14.25;7.75;;;;;;;6.36;81.22;98689.66;5094038;28;20052;-60
2022/02/20 08:54:46;;;;;;;11.93;6.82;;;;;;;6.43;81.53;98677.91;5094077;28;20085;-65
2022/02/20 08:57:12;;;;;;;10.10;7.55;;;;;;;6.49;81.75;98666.25;5093980;28;20043;-61
2022/02/20 08:59:39;;;;;;;13.68;8.23;;;;;;;6.57;81.83;98666.66;5093307;28;20056;-62
2022/02/20 09:02:05;;;;;;;13.13;7.13;;;;;;;6.64;82.13;98654.94;5093540;28;20109;-61
2022/02/20 09:04:32;;;;;;;16.00;7.63;;;;;;;6.73;82.23;98650.09;5093279;28;20502;-62
2022/02/20 09:06:58;;;;;;;11.82;7.40;;;;;;;6.82;82.02;98661.75;5093746;28;20159;-61
2022/02/20 09:09:25;;;;;;;11.30;7.80;;;;;;;6.90;82.15;98638.59;5093786;28;20272;-63
2022/02/20 09:11:51;;;;;;;11.05;7.63;;;;;;;6.97;82.41;98637.31;5092188;28;20205;-67
2022/02/20 09:14:18;;;;;;;10.13;7.18;;;;;;;7.09;82.99;98645.34;5093584;28;20105;-70
2022/02/20 09:16:45;;;;;;;10.20;6.60;;;;;;;7.20;82.77;98653.38;5092495;28;20445;-62
2022/02/20 09:19:11;;;;;;;10.70;6.57;;;;;;;7.29;82.96;98641.53;5093382;28;20094;-64
2022/02/20 09:21:38;;;;;;;11.68;6.93;;;;;;;7.36;83.62;98642.81;5093505;28;20116;-61
2022/02/20 09:24:05;;;;;;;11.35;6.97;;;;;;;7.50;83.54;98634.09;5093228;28;20101;-61
2022/02/20 09:26:32;;;;;;;12.85;5.80;;;;;;;7.64;83.78;98640.25;5093476;28;20056;-61
2022/02/20 09:28:59;;;;;;;10.63;5.78;;;;;;;7.73;83.60;98644.91;5093197;28;20056;-60
2022/02/20 09:31:26;;;;;;;9.82;5.35;;;;;;;7.87;83.76;98641.41;5091785;28;20056;-60
2022/02/20 09:33:53;;;;;;;10.88;5.57;;;;;;;7.98;83.50;98639.88;5093314;28;20094;-62
2022/02/20 09:36:20;;;;;;;9.15;4.97;;;;;;;8.07;83.47;98632.28;5093242;28;20044;-61
2022/02/20 09:38:46;;;;;;;8.43;4.47;;;;;;;8.16;83.67;98654.44;5091842;28;20044;-60
2022/02/20 09:41:13;;;;;;;7.97;4.60;;;;;;;8.26;83.18;98632.88;5093011;28;20109;-62
2022/02/20 09:43:40;;;;;;;10.20;3.80;;;;;;;8.36;83.37;98636.56;5093138;28;20048;-62
2022/02/20 09:46:08;;;;;;;7.90;3.78;;;;;;;8.46;83.31;98634.97;5091693;28;20044;-61
2022/02/20 09:48:36;;;;;;;6.30;3.60;;;;;;;8.56;83.08;98655.41;5092190;28;20044;-61
2022/02/20 09:51:03;;;;;;;12.23;3.70;;;;;;;8.62;83.08;98636.63;5093284;28;20056;-60
2022/02/20 09:53:33;;;;;;;11.85;3.88;;;;;;;8.68;83.23;98649.31;5092973;28;20044;-61
2022/02/20 09:56:00;;;;;;;9.27;3.67;;;;;;;8.77;83.12;98634.75;5090687;28;20105;-61
2022/02/20 09:58:26;;;;;;;9.55;3.58;;;;;;;8.84;83.23;98629.94;5091695;28;20105;-62
2022/02/20 10:00:54;;;;;;;8.27;3.67;;;;;;;8.91;82.96;98620.69;5092190;28;20109;-62
2022/02/20 10:03:27;;;;;;;9.60;3.50;;;;;;;8.98;82.79;98614.06;5092724;28;20079;-60
2022/02/20 10:05:54;;;;;;;8.90;3.45;;;;;;;9.07;82.82;98614.38;5092601;28;20048;-61
2022/02/20 10:08:20;;;;;;;11.15;3.72;;;;;;;9.12;83.00;98615.75;5092843;28;20051;-61
2022/02/20 10:10:47;;;;;;;8.68;3.67;;;;;;;9.16;82.73;98619.00;5092454;28;20453;-61
2022/02/20 10:13:25;;;;;;;10.30;3.67;;;;;;;9.21;82.87;98608.19;5092618;28;20052;-61
2022/02/20 10:15:51;;;;;;;8.18;3.30;;;;;;;9.33;82.84;98607.31;5092620;28;20097;-60
2022/02/20 10:18:20;;;;;;;6.32;3.53;;;;;;;9.37;82.67;98608.78;5091841;28;20055;-63
2022/02/20 10:20:51;;;;;;;9.88;3.58;;;;;;;9.43;82.28;98619.78;5092498;28;20101;-60
2022/02/20 10:23:17;;;;;;;6.72;3.38;;;;;;;9.47;82.22;98613.38;5091077;28;20915;-64
2022/02/20 10:25:45;;;;;;;13.80;3.95;;;;;;;9.54;82.24;98595.38;5092597;28;20052;-61
2022/02/20 10:28:12;;;;;;;13.00;4.15;;;;;;;9.58;82.13;98626.59;5091609;28;20550;-60
2022/02/20 10:30:38;;;;;;;10.55;3.83;;;;;;;9.62;82.18;98598.31;5092539;28;20044;-61
2022/02/20 10:33:20;;;;;;;14.45;5.00;;;;;;;9.65;82.23;98604.19;5091453;28;20066;-62
2022/02/20 10:35:52;;;;;;;7.95;3.83;;;;;;;9.72;81.89;98603.75;5092257;28;20048;-60
2022/02/20 10:38:21;;;;;;;15.88;4.78;;;;;;;9.75;82.13;98606.13;5090900;28;20060;-62
2022/02/20 10:40:51;;;;;;;12.95;4.80;;;;;;;9.81;82.15;98618.00;5090816;28;20102;-63
2022/02/20 10:43:25;;;;;;;15.43;5.10;;;;;;;9.84;81.63;98618.63;5090987;28;20101;-61
2022/02/20 10:46:09;;;;;;;14.27;5.05;;;;;;;9.86;81.18;98621.97;5091975;28;20052;-61
2022/02/20 10:48:41;;;;;;;14.02;5.18;;;;;;;9.93;81.59;98618.88;5090945;28;20068;-61
2022/02/20 10:51:09;;;;;;;17.13;4.90;;;;;;;10.00;81.81;98614.88;5090216;28;20055;-61
2022/02/20 10:53:37;;;;;;;13.02;5.20;;;;;;;10.05;81.77;98607.47;5090423;28;20105;-63
2022/02/20 10:56:04;;;;;;;21.15;6.30;;;;;;;10.04;81.62;98614.53;5090337;28;20048;-61
2022/02/20 10:58:37;;;;;;;18.77;5.97;;;;;;;10.07;81.56;98623.16;5090204;28;20075;-61
2022/02/20 11:01:04;;;;;;;19.35;6.47;;;;;;;10.10;81.65;98602.72;5091754;28;20044;-61
2022/02/20 11:03:36;;;;;;;14.70;5.57;;;;;;;10.15;81.42;98608.50;5090326;28;20059;-62
2022/02/20 11:06:02;;;;;;;13.80;5.13;;;;;;;10.22;81.42;98606.25;5090194;28;20048;-61
2022/02/20 11:08:30;;;;;;;16.45;5.47;;;;;;;10.27;81.13;98608.53;5090918;28;20094;-62
2022/02/20 11:10:57;;;;;;;18.85;6.07;;;;;;;10.32;80.66;98631.88;5091469;28;20044;-61
2022/02/20 11:13:25;;;;;;;17.80;5.40;;;;;;;10.34;80.61;98619.44;5090209;28;20109;-61
2022/02/20 11:15:54;;;;;;;17.77;5.60;;;;;;;10.39;80.53;98612.06;5091110;28;20051;-60
2022/02/20 11:18:22;;;;;;;18.65;5.10;;;;;;;10.46;80.77;98607.19;5090199;28;20052;-61
2022/02/20 11:20:51;;;;;;;18.38;4.82;;;;;;;10.45;80.35;98594.97;5090882;28;20097;-61
2022/02/20 11:23:26;;;;;;;16.02;5.55;;;;;;;10.47;79.64;98599.16;5091432;28;20056;-60
2022/02/20 11:25:56;;;;;;;18.70;5.32;;;;;;;10.49;80.33;98588.53;5089990;28;20443;-63
2022/02/20 11:28:23;;;;;;;19.80;6.00;;;;;;;10.53;80.17;98576.81;5090816;28;20438;-62
2022/02/20 11:30:50;;;;;;;16.50;4.97;;;;;;;10.56;80.23;98571.34;5090907;28;20081;-62
2022/02/20 11:33:17;;;;;;;16.23;5.03;;;;;;;10.59;79.79;98591.31;5091233;28;20109;-61
2022/02/20 11:35:48;;;;;;;21.52;6.22;;;;;;;10.60;79.84;98567.50;5089901;28;20063;-63
2022/02/20 11:38:20;;;;;;;17.35;5.10;;;;;;;10.64;79.00;98562.84;5089840;28;20488;-60
2022/02/20 11:40:59;;;;;;;16.90;4.47;;;;;;;10.66;78.47;98560.94;5089548;28;20044;-61